createdAt,value
2023-02-12T00:03:18.628Z,11.65
2023-02-12T00:08:20.180Z,11.48
2023-02-12T00:13:21.843Z,12.55
2023-02-12T00:18:23.341Z,10.85
2023-02-12T00:23:24.913Z,10.10
2023-02-12T00:28:26.839Z,11.20
2023-02-12T00:33:28.611Z,10.40
2023-02-12T00:38:30.404Z,11.25
2023-02-12T00:43:31.990Z,12.18
2023-02-12T00:48:34.094Z,12.25
2023-02-12T00:53:36.368Z,11.18
2023-02-12T00:58:37.874Z,10.88
2023-02-12T01:03:39.391Z,11.73
2023-02-12T01:08:40.971Z,12.63
2023-02-12T01:13:42.486Z,10.30
2023-02-12T01:18:45.268Z,12.93
2023-02-12T01:23:47.872Z,12.60
2023-02-12T01:28:52.677Z,11.13
2023-02-12T01:33:56.739Z,13.90
2023-02-12T01:38:59.316Z,9.95
2023-02-12T01:44:19.293Z,10.45
2023-02-12T01:49:24.738Z,11.73
2023-02-12T01:54:27.171Z,10.95
2023-02-12T01:59:30.070Z,10.27
2023-02-12T02:04:40.349Z,9.65
2023-02-12T02:09:42.529Z,9.18
2023-02-12T02:14:44.780Z,10.70
2023-02-12T02:20:10.727Z,10.13
2023-02-12T02:25:26.363Z,9.77
2023-02-12T02:30:33.428Z,9.52
2023-02-12T02:35:56.038Z,11.95
2023-02-12T02:41:07.449Z,11.10
2023-02-12T02:46:14.308Z,10.43
2023-02-12T02:51:21.744Z,10.73
2023-02-12T02:56:24.647Z,11.95
2023-02-12T03:01:39.542Z,11.30
2023-02-12T03:06:49.563Z,11.15
2023-02-12T03:11:53.452Z,10.02
2023-02-12T03:17:02.557Z,11.15
2023-02-12T03:22:14.529Z,9.70
2023-02-12T03:27:31.274Z,11.45
2023-02-12T03:32:57.092Z,9.85
2023-02-12T03:38:09.494Z,11.45
2023-02-12T03:43:25.098Z,12.65
2023-02-12T03:48:46.260Z,13.45
2023-02-12T03:53:48.589Z,13.93
2023-02-12T03:58:50.094Z,12.55
2023-02-12T04:03:51.818Z,12.82
2023-02-12T04:08:57.504Z,13.13
2023-02-12T04:14:34.527Z,13.50
2023-02-12T04:19:56.461Z,13.57
2023-02-12T04:25:15.748Z,15.20
2023-02-12T04:30:40.646Z,15.82
2023-02-12T04:36:03.077Z,16.90
2023-02-12T04:41:08.320Z,14.85
2023-02-12T04:46:09.942Z,11.80
2023-02-12T04:51:11.478Z,13.60
2023-02-12T04:56:13.697Z,16.08
2023-02-12T05:01:15.378Z,16.05
2023-02-12T05:06:16.913Z,17.60
2023-02-12T05:11:18.420Z,16.23
2023-02-12T05:16:21.315Z,17.58
2023-02-12T05:21:22.946Z,18.17
2023-02-12T05:26:24.643Z,17.15
2023-02-12T05:31:26.593Z,17.98
2023-02-12T05:36:28.344Z,16.63
2023-02-12T05:41:34.761Z,15.93
2023-02-12T05:46:36.341Z,15.48
2023-02-12T05:51:38.113Z,15.32
2023-02-12T05:56:45.446Z,13.45
2023-02-12T06:01:49.066Z,15.18
2023-02-12T06:06:51.826Z,16.25
2023-02-12T06:11:53.273Z,14.77
2023-02-12T06:16:54.837Z,14.68
2023-02-12T06:21:56.313Z,15.25
2023-02-12T06:26:57.846Z,13.00
2023-02-12T06:31:59.486Z,12.02
2023-02-12T06:37:01.042Z,12.88
2023-02-12T06:42:02.651Z,14.25
2023-02-12T06:47:04.378Z,14.25
2023-02-12T06:52:05.861Z,14.57
2023-02-12T06:57:07.347Z,12.05
2023-02-12T07:02:11.289Z,11.88
2023-02-12T07:07:12.952Z,12.15
2023-02-12T07:12:14.611Z,13.57
2023-02-12T07:17:16.138Z,13.80
2023-02-12T07:22:17.691Z,13.50
2023-02-12T07:27:19.373Z,16.25
2023-02-12T07:32:20.852Z,16.02
2023-02-12T07:37:22.838Z,17.60
2023-02-12T07:42:24.427Z,18.40
2023-02-12T07:47:25.972Z,17.65
2023-02-12T07:52:27.446Z,18.05
2023-02-12T07:57:28.926Z,16.30
2023-02-12T08:02:30.558Z,16.63
2023-02-12T08:07:32.393Z,15.20
2023-02-12T08:12:34.043Z,14.77
2023-02-12T08:17:35.598Z,14.35
2023-02-12T08:22:37.242Z,13.45
2023-02-12T08:27:41.652Z,15.18
2023-02-12T08:32:43.134Z,13.40
2023-02-12T08:37:44.699Z,14.43
2023-02-12T08:42:46.248Z,13.45
2023-02-12T08:47:48.576Z,14.38
2023-02-12T08:52:50.119Z,12.50
2023-02-12T08:57:53.406Z,15.05
2023-02-12T09:02:54.961Z,16.13
2023-02-12T09:07:56.500Z,15.25
2023-02-12T09:12:57.986Z,14.10
2023-02-12T09:18:04.003Z,13.73
2023-02-12T09:23:12.678Z,14.43
2023-02-12T09:28:14.733Z,13.77
2023-02-12T09:33:16.253Z,11.93
2023-02-12T09:38:17.788Z,14.20
2023-02-12T09:43:44.148Z,13.88
2023-02-12T09:48:51.636Z,13.05
2023-02-12T09:54:11.874Z,13.63
2023-02-12T09:59:22.659Z,14.48
2023-02-12T10:04:25.734Z,8.63
2023-02-12T10:09:45.882Z,4.03
2023-02-12T10:15:03.199Z,4.60
2023-02-12T10:20:35.940Z,5.70
2023-02-12T10:25:59.860Z,6.43
2023-02-12T10:31:29.333Z,4.97
2023-02-12T10:36:45.842Z,9.07
2023-02-12T10:41:59.474Z,6.95
2023-02-12T10:47:01.658Z,7.88
2023-02-12T10:52:22.120Z,11.82
2023-02-12T10:57:30.133Z,10.75
2023-02-12T11:02:34.101Z,12.07
2023-02-12T11:07:47.578Z,11.55
2023-02-12T11:12:49.369Z,10.65
2023-02-12T11:18:05.413Z,11.77
2023-02-12T11:23:24.629Z,11.02
2023-02-12T11:28:27.185Z,10.63
2023-02-12T11:33:34.999Z,10.80
2023-02-12T11:38:40.527Z,9.75
2023-02-12T11:43:42.457Z,9.95
2023-02-12T11:48:47.479Z,9.80
2023-02-12T11:53:52.722Z,9.63
2023-02-12T11:58:56.218Z,9.10
2023-02-12T12:04:08.699Z,8.18
2023-02-12T12:09:13.185Z,8.10
2023-02-12T12:14:20.397Z,9.27
2023-02-12T12:19:47.130Z,9.02
2023-02-12T12:25:25.181Z,8.68
2023-02-12T12:30:49.076Z,10.13
2023-02-12T12:36:04.755Z,9.77
2023-02-12T12:41:30.191Z,10.95
2023-02-12T12:46:58.152Z,10.65
2023-02-12T12:52:36.612Z,11.10
2023-02-12T12:58:09.242Z,9.63
2023-02-12T13:03:22.339Z,8.73
2023-02-12T13:08:32.850Z,10.02
2023-02-12T13:19:12.862Z,10.95
2023-02-12T13:24:43.866Z,10.90
2023-02-12T13:29:51.477Z,8.98
2023-02-12T13:34:55.004Z,9.48
2023-02-12T13:40:00.448Z,8.98
2023-02-12T13:45:27.424Z,9.70
2023-02-12T13:50:40.840Z,9.85
2023-02-12T13:56:05.464Z,10.35
2023-02-12T14:01:34.493Z,9.20
2023-02-12T14:06:36.148Z,9.57
2023-02-12T14:11:56.851Z,9.02
2023-02-12T14:17:18.907Z,7.85
2023-02-12T14:22:26.866Z,9.23
2023-02-12T14:27:50.322Z,9.05
2023-02-12T14:32:58.273Z,8.93
2023-02-12T14:38:21.678Z,8.40
2023-02-12T14:43:55.673Z,7.30
2023-02-12T14:49:05.047Z,6.90
2023-02-12T14:54:18.350Z,5.55
2023-02-12T14:59:23.158Z,5.22
2023-02-12T15:04:28.130Z,4.93
2023-02-12T15:09:39.007Z,4.93
2023-02-12T15:14:45.850Z,4.38
2023-02-12T15:20:02.877Z,6.20
2023-02-12T15:25:30.462Z,5.25
2023-02-12T15:30:35.639Z,4.85
2023-02-12T15:35:44.250Z,4.00
2023-02-12T15:40:55.485Z,4.03
2023-02-12T15:45:57.788Z,3.50
2023-02-12T15:51:02.893Z,3.10
2023-02-12T15:56:05.098Z,3.25
2023-02-12T16:01:07.906Z,3.08
2023-02-12T16:06:14.149Z,3.80
2023-02-12T16:11:22.132Z,3.25
2023-02-12T16:16:46.203Z,4.55
2023-02-12T16:21:51.885Z,3.92
2023-02-12T16:26:54.292Z,4.07
2023-02-12T16:32:02.229Z,4.50
2023-02-12T16:37:39.065Z,4.72
2023-02-12T16:42:46.558Z,4.57
2023-02-12T16:47:50.255Z,4.30
2023-02-12T16:53:04.310Z,3.92
2023-02-12T16:58:05.881Z,3.95
2023-02-12T17:03:13.172Z,4.88
2023-02-12T17:08:20.860Z,4.80
2023-02-12T17:13:22.398Z,3.88
2023-02-12T17:18:25.077Z,3.60
2023-02-12T17:23:27.250Z,4.13
2023-02-12T17:28:29.568Z,3.97
2023-02-12T17:33:31.171Z,4.20
2023-02-12T17:38:32.684Z,5.47
2023-02-12T17:43:34.180Z,7.25
2023-02-12T17:48:35.664Z,5.72
2023-02-12T17:53:38.747Z,4.75
2023-02-12T17:58:41.747Z,4.55
2023-02-12T18:03:43.941Z,6.18
2023-02-12T18:08:45.642Z,5.43
2023-02-12T18:13:47.579Z,5.60
2023-02-12T18:18:49.305Z,5.15
2023-02-12T18:23:50.944Z,5.80
2023-02-12T18:28:53.934Z,6.93
2023-02-12T18:33:55.478Z,7.20
2023-02-12T18:38:57.028Z,5.45
2023-02-12T18:43:59.371Z,5.68
2023-02-12T18:49:01.795Z,7.35
2023-02-12T18:54:07.511Z,16.60
2023-02-12T18:59:11.895Z,11.48
2023-02-12T19:04:16.106Z,10.68
2023-02-12T19:09:21.597Z,7.05
2023-02-12T19:14:24.840Z,11.60
2023-02-12T19:19:27.260Z,5.82
2023-02-12T19:24:40.893Z,7.45
2023-02-12T19:29:47.254Z,7.32
2023-02-12T19:34:48.789Z,5.30
2023-02-12T19:39:50.283Z,6.35
2023-02-12T19:44:51.805Z,5.20
2023-02-12T19:49:53.977Z,5.45
2023-02-12T19:54:55.504Z,5.78
2023-02-12T19:59:56.981Z,4.80
2023-02-12T20:04:58.473Z,5.53
2023-02-12T20:09:59.952Z,5.32
2023-02-12T20:15:04.454Z,4.35
2023-02-12T20:20:06.612Z,4.65
2023-02-12T20:25:08.413Z,5.78
2023-02-12T20:30:10.346Z,5.80
2023-02-12T20:35:13.318Z,5.07
2023-02-12T20:40:14.833Z,7.47
2023-02-12T20:45:16.434Z,6.95
2023-02-12T20:50:18.236Z,5.88
2023-02-12T20:55:20.949Z,6.38
2023-02-12T21:00:22.545Z,6.78
2023-02-12T21:05:24.150Z,7.55
2023-02-12T21:10:26.164Z,6.10
2023-02-12T21:15:28.744Z,7.50
2023-02-12T21:20:30.224Z,6.68
2023-02-12T21:25:31.660Z,6.20
2023-02-12T21:30:33.133Z,6.10
2023-02-12T21:35:36.126Z,5.97
2023-02-12T21:40:37.602Z,5.63
2023-02-12T21:45:49.521Z,5.82
2023-02-12T21:50:50.992Z,6.68
2023-02-12T21:55:52.521Z,8.45
2023-02-12T22:00:54.143Z,7.03
2023-02-12T22:06:00.904Z,6.68
2023-02-12T22:11:04.470Z,7.25
2023-02-12T22:16:13.102Z,6.78
2023-02-12T22:21:16.844Z,7.45
2023-02-12T22:26:24.327Z,6.60
2023-02-12T22:31:31.264Z,7.22
2023-02-12T22:36:35.210Z,5.60
2023-02-12T22:41:37.960Z,6.80
2023-02-12T22:46:40.040Z,8.15
2023-02-12T22:51:42.137Z,8.05
2023-02-12T22:56:44.856Z,7.35
2023-02-12T23:01:46.406Z,6.15
2023-02-12T23:06:48.220Z,7.53
2023-02-12T23:11:49.753Z,6.93
2023-02-12T23:16:51.337Z,7.85
2023-02-12T23:21:52.785Z,6.75
2023-02-12T23:26:54.309Z,7.90
2023-02-12T23:31:55.784Z,8.05
2023-02-12T23:36:57.399Z,6.88
2023-02-12T23:41:58.872Z,8.60
2023-02-12T23:47:02.065Z,7.43
2023-02-12T23:52:03.703Z,7.47
2023-02-12T23:57:05.119Z,8.63
